createdAt,value
2023-04-16T00:02:49.260Z,100342.20
2023-04-16T00:07:55.408Z,100346.00
2023-04-16T00:13:01.394Z,100345.00
2023-04-16T00:18:06.986Z,100344.60
2023-04-16T00:23:12.630Z,100339.40
2023-04-16T00:28:18.175Z,100344.00
2023-04-16T00:33:24.056Z,100335.00
2023-04-16T00:38:32.122Z,100342.60
2023-04-16T00:43:37.725Z,100344.60
2023-04-16T00:48:45.051Z,100345.00
2023-04-16T00:53:51.135Z,100346.40
2023-04-16T00:58:57.148Z,100348.00
2023-04-16T01:04:03.040Z,100352.40
2023-04-16T01:09:10.086Z,100354.80
2023-04-16T01:14:15.958Z,100352.60
2023-04-16T01:19:21.845Z,100351.00
2023-04-16T01:24:27.709Z,100349.60
2023-04-16T01:29:33.376Z,100349.60
2023-04-16T01:34:39.249Z,100345.60
2023-04-16T01:39:45.217Z,100339.60
2023-04-16T01:44:51.035Z,100337.20
2023-04-16T01:49:56.972Z,100337.80
2023-04-16T01:55:03.298Z,100341.80
2023-04-16T02:00:11.834Z,100343.80
2023-04-16T02:05:17.961Z,100345.40
2023-04-16T02:10:23.710Z,100346.40
2023-04-16T02:15:29.604Z,100353.60
2023-04-16T02:20:35.972Z,100345.40
2023-04-16T02:25:43.242Z,100353.60
2023-04-16T02:30:48.855Z,100351.80
2023-04-16T02:35:54.569Z,100360.80
2023-04-16T02:41:00.590Z,100352.00
2023-04-16T02:46:06.324Z,100353.80
2023-04-16T02:51:12.217Z,100355.80
2023-04-16T02:56:17.872Z,100365.80
2023-04-16T03:01:23.583Z,100360.00
2023-04-16T03:06:29.360Z,100361.60
2023-04-16T03:11:35.178Z,100367.20
2023-04-16T03:16:41.095Z,100373.20
2023-04-16T03:21:46.863Z,100379.40
2023-04-16T03:26:52.513Z,100381.20
2023-04-16T03:31:58.310Z,100377.00
2023-04-16T03:37:05.657Z,100377.60
2023-04-16T03:42:11.555Z,100380.40
2023-04-16T03:47:17.407Z,100382.80
2023-04-16T03:52:23.042Z,100390.00
2023-04-16T03:57:28.650Z,100381.80
2023-04-16T04:02:34.337Z,100387.60
2023-04-16T04:07:40.392Z,100390.60
2023-04-16T04:12:46.183Z,100396.60
2023-04-16T04:17:52.168Z,100398.80
2023-04-16T04:22:58.378Z,100404.60
2023-04-16T04:28:04.361Z,100404.80
2023-04-16T04:33:10.207Z,100409.00
2023-04-16T04:38:19.515Z,100417.40
2023-04-16T04:43:25.614Z,100420.80
2023-04-16T04:48:31.413Z,100417.00
2023-04-16T04:53:37.148Z,100422.60
2023-04-16T04:58:43.150Z,100425.80
2023-04-16T05:03:48.805Z,100431.40
2023-04-16T05:08:54.510Z,100429.40
2023-04-16T05:14:00.176Z,100438.60
2023-04-16T05:19:06.076Z,100436.60
2023-04-16T05:24:13.058Z,100438.20
2023-04-16T05:29:21.548Z,100442.60
2023-04-16T05:34:27.521Z,100447.60
2023-04-16T05:39:33.171Z,100457.60
2023-04-16T05:44:38.846Z,100462.20
2023-04-16T05:49:44.480Z,100465.20
2023-04-16T05:54:50.134Z,100465.40
2023-04-16T05:59:55.961Z,100467.00
2023-04-16T06:05:01.612Z,100468.20
2023-04-16T06:10:10.031Z,100466.60
2023-04-16T06:15:15.912Z,100472.60
2023-04-16T06:20:21.808Z,100473.00
2023-04-16T06:25:27.527Z,100485.00
2023-04-16T06:30:33.813Z,100488.80
2023-04-16T06:35:39.393Z,100484.00
2023-04-16T06:40:45.264Z,100489.60
2023-04-16T06:45:50.928Z,100491.60
2023-04-16T06:50:59.240Z,100490.40
2023-04-16T06:56:06.026Z,100486.60
2023-04-16T07:01:11.977Z,100499.20
2023-04-16T07:06:17.666Z,100506.80
2023-04-16T07:11:23.366Z,100503.80
2023-04-16T07:16:29.256Z,100512.20
2023-04-16T07:21:34.950Z,100512.20
2023-04-16T07:26:40.668Z,100517.20
2023-04-16T07:31:47.282Z,100513.00
2023-04-16T07:36:53.118Z,100516.80
2023-04-16T07:41:58.794Z,100528.00
2023-04-16T07:47:05.776Z,100536.20
2023-04-16T07:52:12.018Z,100533.40
2023-04-16T07:57:17.731Z,100541.40
2023-04-16T08:02:23.628Z,100536.40
2023-04-16T08:07:29.352Z,100539.00
2023-04-16T08:12:35.388Z,100544.40
2023-04-16T08:17:41.172Z,100544.40
2023-04-16T08:22:48.284Z,100548.80
2023-04-16T08:27:54.058Z,100548.80
2023-04-16T08:32:59.915Z,100554.60
2023-04-16T08:38:07.696Z,100572.20
2023-04-16T08:43:16.409Z,100574.60
2023-04-16T08:48:23.978Z,100580.00
2023-04-16T08:53:41.236Z,100582.40
2023-04-16T08:58:50.227Z,100590.80
2023-04-16T09:03:57.353Z,100591.80
2023-04-16T09:09:05.032Z,100598.20
2023-04-16T09:14:12.326Z,100596.60
2023-04-16T09:19:18.232Z,100605.80
2023-04-16T09:24:24.686Z,100606.20
2023-04-16T09:29:38.372Z,100599.60
2023-04-16T09:35:01.397Z,100614.60
2023-04-16T09:40:10.133Z,100606.20
2023-04-16T09:45:15.879Z,100609.00
2023-04-16T09:50:21.933Z,100618.60
2023-04-16T09:55:29.777Z,100623.80
2023-04-16T10:00:35.589Z,100628.40
2023-04-16T10:05:49.066Z,100635.20
2023-04-16T10:10:56.129Z,100642.00
2023-04-16T10:16:03.500Z,100653.40
2023-04-16T10:21:11.497Z,100653.00
2023-04-16T10:26:19.661Z,100652.40
2023-04-16T10:31:27.390Z,100659.20
2023-04-16T10:36:37.926Z,100662.60
2023-04-16T10:41:45.582Z,100661.40
2023-04-16T10:46:51.518Z,100662.60
2023-04-16T10:51:59.451Z,100659.80
2023-04-16T10:57:08.671Z,100664.60
2023-04-16T11:02:17.758Z,100668.80
2023-04-16T11:07:34.704Z,100678.20
2023-04-16T11:12:42.512Z,100682.40
2023-04-16T11:17:51.569Z,100685.20
2023-04-16T11:22:58.602Z,100689.00
2023-04-16T11:28:04.994Z,100696.00
2023-04-16T11:33:12.495Z,100693.20
2023-04-16T11:38:20.927Z,100686.20
2023-04-16T11:43:27.934Z,100697.40
2023-04-16T11:48:51.856Z,100689.00
2023-04-16T11:53:58.324Z,100697.20
2023-04-16T11:59:16.186Z,100702.00
2023-04-16T12:04:26.420Z,100710.40
2023-04-16T12:09:32.444Z,100716.00
2023-04-16T12:14:38.384Z,100724.80
2023-04-16T12:19:52.534Z,100730.00
2023-04-16T12:25:05.696Z,100732.20
2023-04-16T12:30:14.214Z,100733.00
2023-04-16T12:35:33.555Z,100733.80
2023-04-16T12:40:39.310Z,100718.20
2023-04-16T12:45:44.956Z,100728.60
2023-04-16T12:50:53.511Z,100726.20
2023-04-16T12:55:59.630Z,100724.20
2023-04-16T13:01:05.579Z,100724.40
2023-04-16T13:06:11.988Z,100726.60
2023-04-16T13:11:19.218Z,100735.20
2023-04-16T13:16:25.760Z,100736.40
2023-04-16T13:21:31.706Z,100736.00
2023-04-16T13:26:37.492Z,100736.20
2023-04-16T13:31:43.205Z,100732.20
2023-04-16T13:36:49.069Z,100747.40
2023-04-16T13:41:54.881Z,100748.20
2023-04-16T13:47:01.027Z,100741.00
2023-04-16T13:52:07.136Z,100742.60
2023-04-16T13:57:13.440Z,100744.60
2023-04-16T14:02:19.159Z,100747.20
2023-04-16T14:07:26.682Z,100746.40
2023-04-16T14:12:32.829Z,100746.20
2023-04-16T14:17:38.922Z,100748.00
2023-04-16T14:22:46.236Z,100750.20
2023-04-16T14:27:51.926Z,100753.20
2023-04-16T14:32:57.822Z,100753.40
2023-04-16T14:38:03.583Z,100752.60
2023-04-16T14:43:09.404Z,100752.40
2023-04-16T14:48:15.120Z,100757.20
2023-04-16T14:53:21.054Z,100768.80
2023-04-16T14:58:28.153Z,100768.20
2023-04-16T15:03:34.254Z,100772.60
2023-04-16T15:08:40.096Z,100777.60
2023-04-16T15:13:45.815Z,100774.80
2023-04-16T15:18:51.776Z,100761.40
2023-04-16T15:23:57.681Z,100767.60
2023-04-16T15:29:03.823Z,100770.60
2023-04-16T15:34:09.883Z,100780.40
2023-04-16T15:39:15.673Z,100770.40
2023-04-16T15:44:21.680Z,100777.40
2023-04-16T15:49:27.898Z,100779.60
2023-04-16T15:54:33.865Z,100783.80
2023-04-16T15:59:39.943Z,100788.20
2023-04-16T16:04:46.103Z,100792.40
2023-04-16T16:09:52.700Z,100791.60
2023-04-16T16:14:58.838Z,100794.60
2023-04-16T16:20:09.871Z,100793.40
2023-04-16T16:25:16.192Z,100807.40
2023-04-16T16:30:22.106Z,100804.20
2023-04-16T16:35:27.881Z,100809.80
2023-04-16T16:40:33.991Z,100807.80
2023-04-16T16:45:39.832Z,100808.80
2023-04-16T16:50:45.529Z,100817.40
2023-04-16T16:55:51.217Z,100818.20
2023-04-16T17:00:57.032Z,100820.60
2023-04-16T17:06:02.894Z,100820.80
2023-04-16T17:11:08.631Z,100819.80
2023-04-16T17:16:16.434Z,100823.20
2023-04-16T17:21:22.299Z,100830.40
2023-04-16T17:26:28.132Z,100835.80
2023-04-16T17:31:33.996Z,100839.80
2023-04-16T17:36:40.116Z,100841.80
2023-04-16T17:41:46.173Z,100842.20
2023-04-16T17:46:51.891Z,100849.00
2023-04-16T17:51:57.767Z,100848.20
2023-04-16T17:57:03.569Z,100853.40
2023-04-16T18:02:09.874Z,100861.00
2023-04-16T18:07:16.197Z,100868.00
2023-04-16T18:12:22.045Z,100875.60
2023-04-16T18:17:28.559Z,100877.20
2023-04-16T18:22:34.433Z,100878.60
2023-04-16T18:27:40.443Z,100873.20
2023-04-16T18:33:04.279Z,100888.60
2023-04-16T18:38:13.220Z,100889.40
2023-04-16T18:43:18.985Z,100897.20
2023-04-16T18:48:25.035Z,100894.00
2023-04-16T18:53:31.071Z,100890.40
2023-04-16T18:58:36.885Z,100899.40
2023-04-16T19:03:42.837Z,100893.40
2023-04-16T19:08:48.564Z,100901.80
2023-04-16T19:13:54.484Z,100904.00
2023-04-16T19:19:00.497Z,100908.00
2023-04-16T19:24:07.484Z,100899.40
2023-04-16T19:29:13.176Z,100900.80
2023-04-16T19:34:18.866Z,100897.20
2023-04-16T19:39:27.718Z,100898.80
2023-04-16T19:44:33.413Z,100900.60
2023-04-16T19:49:39.329Z,100908.20
2023-04-16T19:54:45.008Z,100900.80
2023-04-16T19:59:50.762Z,100891.80
2023-04-16T20:04:56.753Z,100890.80
2023-04-16T20:10:03.191Z,100886.20
2023-04-16T20:15:11.713Z,100885.60
2023-04-16T20:20:17.641Z,100886.20
2023-04-16T20:25:25.914Z,100883.40
2023-04-16T20:30:38.243Z,100890.40
2023-04-16T20:35:43.898Z,100891.00
2023-04-16T20:40:57.727Z,100890.40
2023-04-16T20:46:03.606Z,100895.20
2023-04-16T20:51:09.832Z,100906.40
2023-04-16T20:56:15.685Z,100899.40
2023-04-16T21:01:21.410Z,100898.80
2023-04-16T21:06:27.634Z,100903.00
2023-04-16T21:11:34.692Z,100912.20
2023-04-16T21:16:40.440Z,100909.20
2023-04-16T21:21:46.230Z,100917.60
2023-04-16T21:26:51.954Z,100914.80
2023-04-16T21:31:57.743Z,100916.80
2023-04-16T21:37:03.576Z,100912.80
2023-04-16T21:42:09.425Z,100910.40
2023-04-16T21:47:15.729Z,100919.40
2023-04-16T21:52:21.644Z,100915.20
2023-04-16T21:57:27.209Z,100915.00
2023-04-16T22:02:33.684Z,100919.00
2023-04-16T22:07:39.498Z,100917.40
2023-04-16T22:12:46.162Z,100918.60
2023-04-16T22:17:51.801Z,100921.00
2023-04-16T22:22:58.333Z,100918.00
2023-04-16T22:28:04.276Z,100916.00
2023-04-16T22:33:09.959Z,100915.40
2023-04-16T22:38:16.736Z,100917.60
2023-04-16T22:43:22.255Z,100916.40
2023-04-16T22:48:27.948Z,100919.00
2023-04-16T22:53:34.014Z,100922.60
2023-04-16T22:58:40.050Z,100929.60
2023-04-16T23:03:45.989Z,100930.80
2023-04-16T23:08:51.626Z,100932.20
2023-04-16T23:13:58.406Z,100926.00
2023-04-16T23:19:04.490Z,100925.80
2023-04-16T23:24:10.502Z,100931.60
2023-04-16T23:29:16.350Z,100936.00
2023-04-16T23:34:22.010Z,100931.80
2023-04-16T23:39:27.638Z,100930.00
2023-04-16T23:44:33.174Z,100934.40
2023-04-16T23:49:38.800Z,100946.60
2023-04-16T23:54:44.648Z,100940.60
2023-04-16T23:59:50.452Z,100932.20
